Time;durP1;ratioP1;P1;durP2;ratioP2;P2;SDS_P1;SDS_P2;PMS_P1;PMS_P2;Temp;Humidity;BMP_temperature;BMP_pressure;BME280_temperature;BME280_humidity;BME280_pressure;Samples;Min_cycle;Max_cycle;Signal;HPM_P1;HPM_P2
2023/09/14 00:01:03;;;;;;;2.80;1.80;;;;;;;20.33;100.00;101339.44;2081272;28;20220;-63
2023/09/14 00:02:03;;;;;;;4.13;1.80;;;;;;;20.32;100.00;101341.47;2080385;28;20192;-63
2023/09/14 00:03:04;;;;;;;3.63;2.10;;;;;;;20.23;100.00;101330.31;2083745;28;20458;-63
2023/09/14 00:04:04;;;;;;;2.10;1.67;;;;;;;20.34;100.00;101335.34;2076849;28;20197;-63
2023/09/14 00:05:06;;;;;;;3.33;2.07;;;;;;;20.34;100.00;101330.53;2072478;28;20695;-63
2023/09/14 00:06:06;;;;;;;5.13;2.23;;;;;;;20.35;100.00;101332.06;2073261;28;20213;-63
2023/09/14 00:07:07;;;;;;;4.17;2.07;;;;;;;20.25;100.00;101324.97;2081650;28;20260;-63
2023/09/14 00:08:08;;;;;;;3.60;2.10;;;;;;;19.63;100.00;101222.13;2088968;28;20329;-63
2023/09/14 00:09:09;;;;;;;3.47;2.00;;;;;;;20.34;100.00;101327.69;2082216;28;20200;-63
2023/09/14 00:10:10;;;;;;;2.87;2.10;;;;;;;19.74;100.00;101242.03;2080587;28;20205;-63
2023/09/14 00:11:12;;;;;;;5.60;2.17;;;;;;;20.34;100.00;101330.53;2080942;28;20885;-63
2023/09/14 00:12:12;;;;;;;2.87;1.93;;;;;;;20.35;100.00;101334.88;2080466;28;20228;-63
2023/09/14 00:13:12;;;;;;;5.50;1.90;;;;;;;20.36;100.00;101332.84;2079979;28;20509;-63
2023/09/14 00:14:13;;;;;;;2.73;1.93;;;;;;;20.35;100.00;101326.44;2080543;28;20686;-63
2023/09/14 00:15:13;;;;;;;3.70;1.97;;;;;;;20.36;100.00;101327.97;2081149;28;20173;-63
2023/09/14 00:16:14;;;;;;;3.37;2.57;;;;;;;20.36;100.00;101330.81;2080905;28;20601;-63
2023/09/14 00:17:14;;;;;;;3.83;1.97;;;;;;;20.35;100.00;101334.88;2081060;28;20251;-63
2023/09/14 00:18:15;;;;;;;2.67;1.97;;;;;;;20.34;100.00;101330.53;2082452;28;20189;-63
2023/09/14 00:19:15;;;;;;;5.30;2.30;;;;;;;20.35;100.00;101331.28;2081020;28;20765;-63
2023/09/14 00:20:23;;;;;;;2.27;1.63;;;;;;;20.36;100.00;101332.84;2079924;28;20196;-63
2023/09/14 00:21:23;;;;;;;4.27;2.30;;;;;;;20.35;100.00;101328.47;2080966;28;20192;-63
2023/09/14 00:22:24;;;;;;;4.83;2.17;;;;;;;20.34;100.00;101333.34;2080150;28;20439;-63
2023/09/14 00:23:24;;;;;;;2.83;1.93;;;;;;;20.34;100.00;101326.91;2078810;28;20653;-63
2023/09/14 00:24:25;;;;;;;4.17;1.80;;;;;;;20.32;100.00;101333.00;2071609;28;20181;-63
2023/09/14 00:25:26;;;;;;;2.97;1.97;;;;;;;19.72;100.00;101239.72;2080041;28;20181;-64
2023/09/14 00:26:26;;;;;;;7.10;2.53;;;;;;;20.06;100.00;101292.56;2079817;28;20573;-63
2023/09/14 00:27:31;;;;;;;2.23;1.80;;;;;;;20.31;100.00;101333.53;2079956;28;20698;-63
2023/09/14 00:28:31;;;;;;;2.70;1.93;;;;;;;20.30;100.00;101334.75;2081777;28;20176;-63
2023/09/14 00:29:32;;;;;;;3.07;1.80;;;;;;;20.30;100.00;101326.31;2080695;28;20443;-63
2023/09/14 00:30:33;;;;;;;2.70;1.70;;;;;;;20.24;100.00;101320.59;2080109;28;20196;-63
2023/09/14 00:31:36;;;;;;;3.50;1.80;;;;;;;20.29;100.00;101331.19;2080832;28;20205;-63
2023/09/14 00:32:40;;;;;;;2.70;1.77;;;;;;;20.29;100.00;101331.19;2080045;28;20462;-63
2023/09/14 00:33:41;;;;;;;3.93;1.87;;;;;;;19.80;100.00;101251.38;2080834;28;20431;-63
2023/09/14 00:34:41;;;;;;;6.17;1.70;;;;;;;20.29;100.00;101324.75;2080257;28;20450;-63
2023/09/14 00:35:45;;;;;;;5.30;2.10;;;;;;;20.28;100.00;101334.47;2080705;28;20177;-63
2023/09/14 00:36:46;;;;;;;2.43;1.60;;;;;;;19.95;100.00;101278.28;2079921;28;20181;-64
2023/09/14 00:37:47;;;;;;;3.77;1.80;;;;;;;19.91;100.00;101282.53;2081485;28;20439;-63
2023/09/14 00:38:48;;;;;;;3.67;2.30;;;;;;;20.28;100.00;101326.81;2073553;28;20592;-63
2023/09/14 00:39:48;;;;;;;4.00;1.73;;;;;;;20.27;100.00;101335.75;2079767;28;20487;-63
2023/09/14 00:40:50;;;;;;;4.80;2.17;;;;;;;20.25;100.00;101327.78;2080668;28;20459;-63
2023/09/14 00:41:50;;;;;;;3.77;2.07;;;;;;;20.27;100.00;101339.31;2079787;28;20232;-63
2023/09/14 00:42:51;;;;;;;2.77;2.10;;;;;;;20.25;100.00;101335.44;2080294;28;20439;-63
2023/09/14 00:43:51;;;;;;;4.60;2.00;;;;;;;19.94;100.00;101302.03;2080634;28;20363;-63
2023/09/14 00:44:52;;;;;;;2.73;1.90;;;;;;;20.18;100.00;101339.41;2080177;28;20180;-63
2023/09/14 00:45:52;;;;;;;4.30;2.30;;;;;;;20.18;100.00;101345.03;2080500;28;20267;-63
2023/09/14 00:46:53;;;;;;;6.97;2.23;;;;;;;18.56;100.00;101095.91;2080604;28;20728;-63
2023/09/14 00:47:58;;;;;;;3.40;2.43;;;;;;;20.10;100.00;101341.03;2080681;28;20279;-64
2023/09/14 00:49:00;;;;;;;4.43;2.13;;;;;;;20.04;100.00;101342.91;2080902;28;20195;-63
2023/09/14 00:50:01;;;;;;;3.03;2.07;;;;;;;19.26;100.00;101232.84;2080371;28;20963;-63
2023/09/14 00:51:03;;;;;;;3.83;2.13;;;;;;;19.95;100.00;101340.16;2080775;28;20435;-63
2023/09/14 00:52:05;;;;;;;2.93;2.17;;;;;;;19.92;100.00;101352.41;2079716;28;20572;-63
2023/09/14 00:53:11;;;;;;;3.50;2.50;;;;;;;19.90;100.00;101342.88;2080580;28;20487;-63
2023/09/14 00:54:12;;;;;;;3.17;2.17;;;;;;;19.84;100.00;101344.78;2080300;28;20486;-63
2023/09/14 00:55:17;;;;;;;5.47;2.30;;;;;;;19.76;100.00;101347.16;2079908;28;20412;-63
2023/09/14 00:56:18;;;;;;;4.50;2.60;;;;;;;19.71;100.00;101339.38;2080038;28;20215;-63
2023/09/14 00:57:20;;;;;;;4.37;2.07;;;;;;;19.66;100.00;101330.84;2080707;28;20495;-63
2023/09/14 00:58:21;;;;;;;3.97;2.30;;;;;;;19.63;100.00;101338.19;2081355;28;20690;-63
2023/09/14 00:59:21;;;;;;;7.23;2.77;;;;;;;19.58;100.00;101341.66;2080674;28;20798;-63
2023/09/14 01:00:21;;;;;;;8.13;2.33;;;;;;;19.60;100.00;101344.00;2080459;28;20646;-63
2023/09/14 01:01:23;;;;;;;5.30;1.90;;;;;;;19.60;100.00;101344.75;2080673;28;20193;-63
2023/09/14 01:02:25;;;;;;;4.83;2.17;;;;;;;19.61;100.00;101342.75;2079581;28;20658;-63
2023/09/14 01:03:26;;;;;;;5.27;2.73;;;;;;;19.18;100.00;101282.19;2080603;28;20463;-63
2023/09/14 01:04:29;;;;;;;4.77;2.40;;;;;;;19.61;100.00;101342.75;2079867;28;20423;-63
2023/09/14 01:05:30;;;;;;;4.07;2.00;;;;;;;18.65;100.00;101188.50;2080462;28;20450;-63
2023/09/14 01:06:32;;;;;;;3.63;2.10;;;;;;;19.64;100.00;101342.56;2080765;28;20441;-63
2023/09/14 01:07:36;;;;;;;4.90;2.00;;;;;;;19.65;100.00;101344.09;2083741;28;20466;-64
2023/09/14 01:08:37;;;;;;;3.13;1.90;;;;;;;19.66;100.00;101342.84;2079607;28;20910;-64
2023/09/14 01:09:37;;;;;;;4.10;2.20;;;;;;;19.68;100.00;101340.34;2079670;28;20440;-63
2023/09/14 01:10:38;;;;;;;3.77;2.40;;;;;;;19.57;100.00;101314.81;2080328;28;20192;-63
2023/09/14 01:11:38;;;;;;;3.93;2.10;;;;;;;19.71;100.00;101341.44;2080350;28;20312;-63
2023/09/14 01:12:39;;;;;;;4.37;2.00;;;;;;;19.72;100.00;101340.16;2079840;28;20200;-63
2023/09/14 01:14:09;;;;;;;7.60;1.97;;;;;;;19.57;100.00;101319.63;2086758;28;20195;-63
2023/09/14 01:15:45;;;;;;;3.43;2.07;;;;;;;19.73;100.00;101336.09;2080654;28;20661;-67
2023/09/14 01:16:57;;;;;;;2.60;1.70;;;;;;;19.72;100.00;101337.34;2063011;28;20436;-63
2023/09/14 01:18:11;;;;;;;6.97;2.27;;;;;;;19.72;100.00;101332.53;2074640;28;20434;-63
2023/09/14 01:19:26;;;;;;;5.97;3.10;;;;;;;19.71;100.00;101333.00;2073396;28;20416;-63
2023/09/14 01:20:27;;;;;;;4.27;2.00;;;;;;;19.69;100.00;101327.06;2073198;28;20454;-64
2023/09/14 01:21:47;;;;;;;5.93;2.50;;;;;;;19.67;100.00;101326.75;2081393;28;20410;-63
2023/09/14 01:23:06;;;;;;;3.37;2.10;;;;;;;19.64;100.00;101336.13;2074029;28;20239;-63
2023/09/14 01:24:11;;;;;;;4.87;2.00;;;;;;;19.64;100.00;101338.94;2085257;28;20425;-63
2023/09/14 01:27:09;;;;;;;8.07;2.60;;;;;;;19.57;100.00;101340.09;2080145;28;20443;-63
2023/09/14 01:28:13;;;;;;;3.63;2.23;;;;;;;19.61;100.00;101337.91;2079744;28;20565;-63
2023/09/14 01:29:14;;;;;;;5.57;2.40;;;;;;;19.61;100.00;101337.91;2080574;28;20439;-64
2023/09/14 01:30:15;;;;;;;5.93;2.23;;;;;;;19.64;100.00;101334.13;2080130;28;20446;-63
2023/09/14 01:31:16;;;;;;;6.13;2.50;;;;;;;19.66;100.00;101342.84;2080558;28;20266;-63
2023/09/14 01:32:16;;;;;;;6.07;2.40;;;;;;;19.10;100.00;101255.69;2079399;28;20444;-63
2023/09/14 01:33:17;;;;;;;3.40;1.97;;;;;;;19.65;100.00;101335.66;2080369;28;20234;-63
2023/09/14 01:34:19;;;;;;;5.40;2.50;;;;;;;19.66;100.00;101337.22;2080063;28;20185;-63
2023/09/14 01:35:20;;;;;;;3.43;2.13;;;;;;;19.66;100.00;101339.28;2084083;28;20458;-63
2023/09/14 01:36:28;;;;;;;4.00;2.50;;;;;;;19.68;100.00;101345.97;2080766;28;20415;-63
2023/09/14 01:37:29;;;;;;;4.23;2.33;;;;;;;19.69;100.00;101339.09;2080184;28;20173;-63
2023/09/14 01:38:31;;;;;;;3.73;2.27;;;;;;;19.23;100.00;101267.50;2079543;28;20894;-63
2023/09/14 01:39:33;;;;;;;2.60;1.97;;;;;;;19.70;100.00;101345.50;2080484;28;20518;-63
2023/09/14 01:40:36;;;;;;;3.77;2.27;;;;;;;19.72;100.00;101335.34;2080543;28;20454;-63
2023/09/14 01:41:37;;;;;;;4.13;2.03;;;;;;;19.11;100.00;101240.41;2075418;28;20463;-64
2023/09/14 01:42:39;;;;;;;5.63;2.47;;;;;;;19.74;100.00;101338.44;2074945;28;20684;-63
2023/09/14 01:43:43;;;;;;;4.03;2.43;;;;;;;19.72;100.00;101340.16;2084321;28;20480;-63
2023/09/14 01:44:44;;;;;;;2.67;1.93;;;;;;;19.72;100.00;101340.16;2080104;28;20976;-63
2023/09/14 01:45:45;;;;;;;4.63;2.30;;;;;;;19.72;100.00;101340.16;2079953;28;20881;-63
2023/09/14 01:46:46;;;;;;;4.67;2.30;;;;;;;19.74;100.00;101334.84;2080740;28;20181;-63
2023/09/14 01:47:52;;;;;;;5.90;2.47;;;;;;;19.75;100.00;101339.97;2079358;28;20962;-63
2023/09/14 01:48:52;;;;;;;3.00;2.03;;;;;;;19.47;100.00;101292.81;2079612;28;20276;-63
2023/09/14 01:49:53;;;;;;;3.83;2.33;;;;;;;19.78;100.00;101343.88;2080293;28;20503;-63
2023/09/14 01:50:53;;;;;;;3.43;2.23;;;;;;;19.78;100.00;101339.03;2080283;28;20192;-62
2023/09/14 01:51:54;;;;;;;3.37;2.10;;;;;;;19.78;100.00;101336.22;2079317;28;20714;-63
2023/09/14 01:52:55;;;;;;;3.60;2.10;;;;;;;19.78;100.00;101336.22;2076703;28;20221;-66
2023/09/14 01:53:56;;;;;;;3.33;2.07;;;;;;;19.80;100.00;101330.13;2079496;28;20180;-66
2023/09/14 01:54:56;;;;;;;4.93;2.53;;;;;;;19.82;100.00;101336.84;2080284;28;20428;-63
2023/09/14 01:55:56;;;;;;;5.10;2.00;;;;;;;19.83;100.00;101337.59;2080590;28;20181;-63
2023/09/14 01:56:57;;;;;;;4.00;2.43;;;;;;;19.71;100.00;101307.69;2079871;28;20614;-63
2023/09/14 01:57:57;;;;;;;3.10;2.00;;;;;;;19.80;100.00;101330.13;2079486;28;20646;-63
2023/09/14 01:58:58;;;;;;;3.03;2.30;;;;;;;19.68;100.00;101315.03;2079638;28;20592;-63
2023/09/14 01:59:58;;;;;;;4.67;2.20;;;;;;;19.79;100.00;101325.75;2079664;28;20241;-63
2023/09/14 02:00:59;;;;;;;4.00;1.80;;;;;;;19.75;100.00;101323.13;2079781;28;20189;-63
2023/09/14 02:01:59;;;;;;;3.83;2.00;;;;;;;19.76;100.00;101321.84;2079552;28;20629;-63
2023/09/14 02:02:59;;;;;;;3.83;2.20;;;;;;;19.77;100.00;101329.06;2080004;28;20185;-64
2023/09/14 02:04:00;;;;;;;3.77;2.20;;;;;;;19.78;100.00;101321.38;2080333;28;20191;-63
2023/09/14 02:05:00;;;;;;;3.80;2.20;;;;;;;19.80;100.00;101332.94;2080555;28;20193;-63
2023/09/14 02:06:02;;;;;;;3.97;2.30;;;;;;;19.79;100.00;101326.53;2079782;28;20197;-62
2023/09/14 02:07:02;;;;;;;3.53;2.00;;;;;;;19.80;100.00;101328.06;2079003;28;20204;-65
2023/09/14 02:08:03;;;;;;;2.97;1.90;;;;;;;19.80;100.00;101330.91;2075960;28;20911;-65
2023/09/14 02:09:04;;;;;;;3.90;2.00;;;;;;;19.82;100.00;101334.03;2079660;28;20292;-65
2023/09/14 02:10:05;;;;;;;2.57;1.90;;;;;;;19.79;100.00;101334.19;2079550;28;20204;-65
2023/09/14 02:11:05;;;;;;;3.17;1.93;;;;;;;19.79;100.00;101339.81;2080281;28;20220;-66
2023/09/14 02:12:06;;;;;;;2.63;2.00;;;;;;;19.80;100.00;101330.13;2079403;28;20507;-63
2023/09/14 02:13:07;;;;;;;2.63;1.63;;;;;;;19.31;100.00;101260.31;2073771;28;20185;-63
2023/09/14 02:14:07;;;;;;;3.47;2.00;;;;;;;19.81;100.00;101334.50;2079315;28;20189;-63
2023/09/14 02:15:11;;;;;;;3.13;2.00;;;;;;;19.75;100.00;101320.28;2079967;28;20512;-63
2023/09/14 02:16:11;;;;;;;2.87;1.83;;;;;;;19.78;100.00;101321.38;2078989;28;20386;-63
2023/09/14 02:17:12;;;;;;;2.40;1.90;;;;;;;19.77;100.00;101331.88;2079550;28;20522;-63
2023/09/14 02:18:12;;;;;;;2.90;1.80;;;;;;;19.79;100.00;101332.16;2079696;28;20201;-63
2023/09/14 02:19:13;;;;;;;3.57;1.87;;;;;;;19.81;100.00;101335.25;2079725;28;20185;-63
2023/09/14 02:20:13;;;;;;;4.17;2.30;;;;;;;19.84;100.00;101333.50;2079128;28;20215;-64
2023/09/14 02:21:16;;;;;;;5.33;2.37;;;;;;;19.85;100.00;101337.91;2080316;28;20177;-64
2023/09/14 02:22:16;;;;;;;4.23;1.73;;;;;;;19.86;100.00;101337.41;2078921;28;20216;-63
2023/09/14 02:23:18;;;;;;;4.30;2.00;;;;;;;19.88;100.00;101342.56;2080123;28;20478;-62
2023/09/14 02:24:18;;;;;;;3.30;1.90;;;;;;;19.88;100.00;101337.72;2079300;28;20203;-62
2023/09/14 02:25:19;;;;;;;2.43;1.70;;;;;;;19.89;100.00;101342.09;2080185;28;20470;-62
2023/09/14 02:26:19;;;;;;;6.37;2.10;;;;;;;19.89;100.00;101342.09;2079368;28;20205;-63
2023/09/14 02:27:20;;;;;;;5.10;2.33;;;;;;;19.91;100.00;101341.63;2079579;28;20204;-62
2023/09/14 02:28:20;;;;;;;4.50;2.10;;;;;;;19.91;100.00;101341.63;2079624;28;20177;-63
2023/09/14 02:29:21;;;;;;;3.60;1.77;;;;;;;19.91;100.00;101339.56;2080834;28;20181;-62
2023/09/14 02:30:21;;;;;;;2.80;1.93;;;;;;;19.90;100.00;101338.00;2079530;28;20193;-63
2023/09/14 02:31:22;;;;;;;3.37;1.83;;;;;;;19.90;100.00;101342.88;2079858;28;20677;-63
2023/09/14 02:32:23;;;;;;;3.80;2.07;;;;;;;19.88;100.00;101342.56;2079299;28;20199;-63
2023/09/14 02:33:23;;;;;;;3.23;1.93;;;;;;;19.78;100.00;101327.78;2079950;28;20982;-62
2023/09/14 02:34:24;;;;;;;4.17;2.30;;;;;;;19.85;100.00;101337.91;2075285;28;20189;-63
2023/09/14 02:35:24;;;;;;;5.03;2.00;;;;;;;19.84;100.00;101342.75;2071149;28;20184;-63
2023/09/14 02:36:26;;;;;;;5.00;2.10;;;;;;;18.94;100.00;101199.88;2071834;28;20173;-63
2023/09/14 02:37:26;;;;;;;2.83;1.77;;;;;;;19.79;100.00;101349.03;2078861;28;20177;-63
2023/09/14 02:38:26;;;;;;;2.57;1.63;;;;;;;19.78;100.00;101344.66;2079974;28;20319;-63
2023/09/14 02:39:27;;;;;;;2.80;1.70;;;;;;;19.77;100.00;101351.56;2079735;28;20197;-63
2023/09/14 02:40:29;;;;;;;2.43;1.70;;;;;;;19.76;100.00;101357.66;2072356;28;20204;-63
2023/09/14 02:41:29;;;;;;;2.10;1.60;;;;;;;19.74;100.00;101357.34;2075720;28;20261;-63
2023/09/14 02:42:30;;;;;;;3.53;2.00;;;;;;;19.68;100.00;101343.16;2074766;28;20447;-62
2023/09/14 02:43:30;;;;;;;3.30;2.13;;;;;;;19.66;100.00;101356.16;2079825;28;21216;-63
2023/09/14 02:44:30;;;;;;;2.77;2.00;;;;;;;19.62;100.00;101349.91;2079673;28;20169;-63
2023/09/14 02:45:31;;;;;;;3.47;1.80;;;;;;;19.57;100.00;101348.53;2079506;28;20714;-63
2023/09/14 02:46:31;;;;;;;3.47;1.70;;;;;;;19.50;100.00;101340.44;2080251;28;20188;-63
2023/09/14 02:47:32;;;;;;;2.70;1.83;;;;;;;19.50;100.00;101343.25;2079969;28;20343;-63
2023/09/14 02:48:32;;;;;;;3.60;2.20;;;;;;;19.49;100.00;101344.50;2079871;28;20197;-62
2023/09/14 02:49:32;;;;;;;4.27;2.83;;;;;;;19.48;100.00;101348.56;2079523;28;20280;-62
2023/09/14 02:50:33;;;;;;;4.73;2.10;;;;;;;19.48;100.00;101351.38;2079290;28;20716;-62
2023/09/14 02:51:33;;;;;;;4.37;2.17;;;;;;;19.45;100.00;101341.09;2078296;28;20237;-63
2023/09/14 02:52:34;;;;;;;3.30;1.83;;;;;;;19.43;100.00;101346.41;2078396;28;20173;-62
2023/09/14 02:53:34;;;;;;;4.00;2.20;;;;;;;19.41;100.00;101351.75;2074212;28;20253;-62
2023/09/14 02:54:34;;;;;;;4.03;1.80;;;;;;;19.40;100.00;101349.41;2080454;28;20185;-62
2023/09/14 02:55:35;;;;;;;2.37;1.67;;;;;;;19.38;100.00;101347.06;2078815;28;20193;-62
2023/09/14 02:56:35;;;;;;;4.63;1.63;;;;;;;19.40;100.00;101344.53;2072748;28;20321;-62
2023/09/14 02:57:36;;;;;;;2.47;1.53;;;;;;;19.40;100.00;101350.16;2076238;28;20181;-63
2023/09/14 02:58:37;;;;;;;3.00;2.30;;;;;;;18.80;100.00;101265.19;2079882;28;20203;-63
2023/09/14 02:59:37;;;;;;;3.37;2.17;;;;;;;19.26;100.00;101325.59;2079720;28;20197;-62
2023/09/14 03:00:39;;;;;;;4.87;2.03;;;;;;;19.31;100.00;101336.19;2079532;28;20407;-63
2023/09/14 03:01:39;;;;;;;3.47;1.80;;;;;;;19.27;100.00;101341.19;2077921;28;20169;-62
2023/09/14 03:02:42;;;;;;;3.63;2.10;;;;;;;19.25;100.00;101335.25;2079268;28;20996;-63
2023/09/14 03:03:42;;;;;;;4.37;2.30;;;;;;;19.22;100.00;101341.03;2074388;28;20203;-62
2023/09/14 03:04:43;;;;;;;4.30;2.37;;;;;;;19.20;100.00;101338.69;2079162;28;20465;-63
2023/09/14 03:05:43;;;;;;;5.30;2.40;;;;;;;19.20;100.00;101337.91;2079269;28;20784;-63
2023/09/14 03:06:44;;;;;;;2.37;1.77;;;;;;;19.18;100.00;101335.56;2079473;28;20713;-62
2023/09/14 03:07:44;;;;;;;3.57;2.40;;;;;;;19.13;100.00;101330.59;2079587;28;20219;-62
2023/09/14 03:08:45;;;;;;;3.97;1.97;;;;;;;18.56;100.00;101253.09;2079301;28;20293;-62
2023/09/14 03:09:45;;;;;;;3.77;2.20;;;;;;;18.29;100.00;101220.22;2079531;28;20176;-62
2023/09/14 03:10:46;;;;;;;3.50;2.03;;;;;;;19.11;100.00;101346.38;2080711;28;20177;-62
2023/09/14 03:11:46;;;;;;;3.50;2.00;;;;;;;19.09;100.00;101346.81;2082472;28;20621;-62
2023/09/14 03:12:47;;;;;;;3.63;2.00;;;;;;;19.00;100.00;101332.03;2073371;28;20215;-62
2023/09/14 03:13:47;;;;;;;6.43;2.53;;;;;;;19.04;100.00;101336.22;2074350;28;20192;-62
2023/09/14 03:14:47;;;;;;;4.83;2.40;;;;;;;19.15;100.00;101342.16;2079549;28;20612;-62
2023/09/14 03:16:00;;;;;;;4.30;2.20;;;;;;;19.16;100.00;101343.69;2079003;28;20425;-62
2023/09/14 03:17:01;;;;;;;5.83;2.10;;;;;;;19.17;100.00;101339.63;2079559;28;20203;-62
2023/09/14 03:18:01;;;;;;;10.63;2.43;;;;;;;19.18;100.00;101337.63;2079271;28;20937;-62
2023/09/14 03:19:03;;;;;;;11.90;2.37;;;;;;;19.18;100.00;101344.00;2082339;28;20274;-62
2023/09/14 03:20:06;;;;;;;3.13;2.00;;;;;;;18.99;100.00;101308.78;2079501;28;20181;-62
2023/09/14 03:21:24;;;;;;;3.03;2.00;;;;;;;19.21;100.00;101345.88;2080556;28;20500;-62
2023/09/14 03:22:24;;;;;;;5.83;1.87;;;;;;;19.22;100.00;101343.84;2070010;28;20412;-62
2023/09/14 03:23:25;;;;;;;7.10;2.63;;;;;;;19.21;100.00;101343.06;2080263;28;20420;-62
2023/09/14 03:24:25;;;;;;;3.07;2.00;;;;;;;19.22;100.00;101344.63;2078906;28;20196;-64
2023/09/14 03:25:26;;;;;;;4.57;2.13;;;;;;;19.17;100.00;101336.03;2079670;28;20626;-64
2023/09/14 03:26:27;;;;;;;3.53;2.10;;;;;;;19.20;100.00;101341.50;2078898;28;20295;-64
2023/09/14 03:27:28;;;;;;;3.67;2.20;;;;;;;19.16;100.00;101332.47;2079241;28;20303;-64
2023/09/14 03:28:28;;;;;;;2.93;1.90;;;;;;;18.83;100.00;101285.94;2079499;28;20504;-64
2023/09/14 03:29:28;;;;;;;2.83;1.87;;;;;;;19.23;100.00;101351.03;2079448;28;20234;-64
2023/09/14 03:30:29;;;;;;;7.60;2.33;;;;;;;19.12;100.00;101323.41;2079061;28;20260;-64
2023/09/14 03:31:29;;;;;;;3.17;1.93;;;;;;;19.21;100.00;101354.31;2080344;28;20657;-64
2023/09/14 03:32:30;;;;;;;4.60;1.97;;;;;;;19.19;100.00;101342.75;2077973;28;20193;-65
2023/09/14 03:33:30;;;;;;;3.37;1.83;;;;;;;19.19;100.00;101353.22;2078831;28;20203;-64
2023/09/14 03:34:30;;;;;;;4.87;2.07;;;;;;;19.18;100.00;101341.19;2079307;28;20283;-64
2023/09/14 03:35:31;;;;;;;3.33;2.10;;;;;;;19.18;100.00;101354.47;2079245;28;20188;-64
2023/09/14 03:36:32;;;;;;;3.57;2.27;;;;;;;19.16;100.00;101356.97;2078932;28;20650;-64
2023/09/14 03:37:32;;;;;;;2.73;2.20;;;;;;;19.15;100.00;101352.59;2079329;28;20223;-64
2023/09/14 03:38:33;;;;;;;3.77;1.80;;;;;;;19.08;100.00;101376.19;2079450;28;20419;-64
2023/09/14 03:39:33;;;;;;;3.20;1.73;;;;;;;19.10;100.00;101344.81;2088063;28;20183;-64
2023/09/14 03:40:34;;;;;;;4.63;2.20;;;;;;;19.12;100.00;101350.72;2079650;28;20206;-64
2023/09/14 03:41:34;;;;;;;3.27;2.00;;;;;;;19.14;100.00;101351.03;2079547;28;20271;-64
2023/09/14 03:42:34;;;;;;;5.80;2.20;;;;;;;19.01;100.00;101325.97;2078457;28;20749;-64
2023/09/14 03:43:35;;;;;;;3.57;2.30;;;;;;;19.11;100.00;101347.16;2079626;28;20245;-64
2023/09/14 03:44:35;;;;;;;3.47;1.97;;;;;;;18.49;100.00;101261.06;2084150;28;20737;-64
2023/09/14 03:45:37;;;;;;;4.03;2.10;;;;;;;19.03;100.00;101345.91;2079343;28;20678;-65
2023/09/14 03:46:38;;;;;;;7.70;2.50;;;;;;;19.03;100.00;101353.59;2079006;28;20256;-64
2023/09/14 03:47:38;;;;;;;4.10;1.90;;;;;;;19.01;100.00;101351.25;2078279;28;20463;-64
2023/09/14 03:48:39;;;;;;;5.17;2.23;;;;;;;18.98;100.00;101346.56;2080372;28;20193;-64
2023/09/14 03:49:39;;;;;;;8.03;2.70;;;;;;;18.76;100.00;101317.13;2079198;28;20193;-65
2023/09/14 03:50:40;;;;;;;6.63;2.20;;;;;;;18.97;100.00;101356.25;2079851;28;20229;-64
2023/09/14 03:51:40;;;;;;;5.17;3.07;;;;;;;18.96;100.00;101351.09;2079260;28;20229;-64
2023/09/14 03:52:41;;;;;;;8.83;3.23;;;;;;;18.94;100.00;101351.56;2078624;28;20196;-64
2023/09/14 03:53:41;;;;;;;5.43;2.90;;;;;;;18.92;100.00;101350.47;2078790;28;20196;-64
2023/09/14 03:54:41;;;;;;;4.50;2.47;;;;;;;18.90;100.00;101350.97;2079165;28;20208;-64
2023/09/14 03:55:42;;;;;;;7.70;2.93;;;;;;;18.92;100.00;101350.47;2079215;28;20185;-65
2023/09/14 03:56:43;;;;;;;5.87;2.77;;;;;;;18.92;100.00;101347.66;2080200;28;20176;-64
2023/09/14 03:57:47;;;;;;;5.27;2.43;;;;;;;18.88;100.00;101341.47;2078797;28;20584;-64
2023/09/14 03:58:48;;;;;;;5.47;2.80;;;;;;;18.94;100.00;101348.75;2080344;28;20653;-64
2023/09/14 03:59:48;;;;;;;3.50;2.30;;;;;;;18.92;100.00;101344.84;2081986;28;20509;-65
2023/09/14 04:00:49;;;;;;;5.00;2.20;;;;;;;18.71;100.00;101335.41;2079436;28;20273;-64
2023/09/14 04:01:49;;;;;;;4.70;2.40;;;;;;;18.86;100.00;101344.72;2076136;28;20741;-65
2023/09/14 04:02:49;;;;;;;3.57;2.50;;;;;;;18.87;100.00;101345.50;2077287;28;20693;-65
2023/09/14 04:03:50;;;;;;;4.30;2.40;;;;;;;18.87;100.00;101351.09;2079299;28;20188;-64
2023/09/14 04:04:50;;;;;;;5.67;2.43;;;;;;;18.87;100.00;101357.50;2077303;28;20197;-65
2023/09/14 04:05:51;;;;;;;5.57;2.57;;;;;;;18.89;100.00;101351.44;2077891;28;20644;-65
2023/09/14 04:06:51;;;;;;;4.63;2.53;;;;;;;18.91;100.00;101360.16;2075937;28;20281;-66
2023/09/14 04:07:51;;;;;;;6.90;1.93;;;;;;;18.79;100.00;101345.03;2077003;28;20193;-65
2023/09/14 04:08:52;;;;;;;3.53;1.93;;;;;;;18.93;100.00;101354.84;2078377;28;20256;-65
2023/09/14 04:09:52;;;;;;;4.73;2.60;;;;;;;18.95;100.00;101355.94;2087716;28;20179;-65
2023/09/14 04:10:53;;;;;;;2.90;2.10;;;;;;;18.98;100.00;101365.47;2078131;28;20196;-65
2023/09/14 04:11:53;;;;;;;5.20;2.27;;;;;;;18.97;100.00;101359.03;2077140;28;20199;-61
2023/09/14 04:13:17;;;;;;;1.47;1.10;;;;;;;19.45;100.00;101357.19;2077191;28;20227;-60
2023/09/14 04:14:17;;;;;;;3.37;1.60;;;;;;;20.06;100.00;101364.97;2076392;28;20347;-61
2023/09/14 04:15:17;;;;;;;4.47;1.77;;;;;;;20.40;100.00;101368.00;2077373;28;20512;-61
2023/09/14 04:16:18;;;;;;;4.20;1.87;;;;;;;20.86;100.00;101366.31;2080073;28;20180;-59
2023/09/14 04:17:18;;;;;;;14.63;3.17;;;;;;;21.06;100.00;101369.25;2077703;28;20259;-60
2023/09/14 04:18:19;;;;;;;2.10;1.70;;;;;;;21.19;100.00;101363.31;2079370;28;20551;-63
2023/09/14 04:19:19;;;;;;;8.47;2.30;;;;;;;21.58;100.00;101365.47;2077997;28;20615;-63
2023/09/14 04:20:19;;;;;;;9.67;2.20;;;;;;;21.68;100.00;101357.66;2077088;28;20189;-62
2023/09/14 04:21:20;;;;;;;7.53;2.00;;;;;;;21.85;100.00;101361.53;2077703;28;20581;-62
2023/09/14 04:22:20;;;;;;;15.33;3.30;;;;;;;22.01;100.00;101361.72;2076779;28;20621;-62
2023/09/14 04:23:21;;;;;;;4.33;1.97;;;;;;;21.88;100.00;101361.31;2076415;28;20642;-63
2023/09/14 04:24:21;;;;;;;2.83;1.90;;;;;;;22.04;100.00;101357.94;2077823;28;20749;-63
2023/09/14 04:25:22;;;;;;;6.97;1.97;;;;;;;22.04;100.00;101363.56;2076013;28;20295;-63
2023/09/14 04:26:22;;;;;;;2.97;2.00;;;;;;;22.03;100.00;101361.25;2080663;28;20192;-63
2023/09/14 04:27:23;;;;;;;4.63;2.13;;;;;;;22.23;100.00;101373.31;2081262;28;20239;-63
2023/09/14 04:28:23;;;;;;;6.50;2.63;;;;;;;22.37;100.00;101343.44;2078210;28;20878;-63
2023/09/14 04:29:24;;;;;;;7.00;2.07;;;;;;;22.51;100.00;101343.38;2076926;28;20188;-63
2023/09/14 04:30:24;;;;;;;6.90;2.40;;;;;;;22.58;100.00;101353.47;2083275;28;20203;-63
2023/09/14 04:31:28;;;;;;;6.03;2.63;;;;;;;22.74;100.00;101370.59;2080873;28;20192;-63
2023/09/14 04:32:28;;;;;;;8.33;2.57;;;;;;;22.74;100.00;101378.28;2074869;28;20236;-63
2023/09/14 04:33:32;;;;;;;10.13;2.90;;;;;;;22.22;100.00;101287.06;2076724;28;20200;-63
2023/09/14 04:34:32;;;;;;;6.43;2.40;;;;;;;22.85;100.00;101375.56;2076935;28;20185;-63
2023/09/14 04:35:33;;;;;;;8.23;2.70;;;;;;;22.94;100.00;101373.38;2080552;28;20181;-63
2023/09/14 04:36:34;;;;;;;5.83;2.80;;;;;;;22.92;100.00;101369.50;2079349;28;20250;-63
2023/09/14 04:37:34;;;;;;;9.83;2.63;;;;;;;22.94;100.00;101379.03;2077647;28;20184;-64
2023/09/14 04:38:35;;;;;;;5.80;2.53;;;;;;;22.99;100.00;101380.34;2079297;28;20189;-64
2023/09/14 04:39:35;;;;;;;11.53;2.80;;;;;;;23.09;100.00;101384.53;2080281;28;20265;-64
2023/09/14 04:40:41;;;;;;;14.87;2.63;;;;;;;23.16;100.00;101370.72;2083481;28;20650;-64
2023/09/14 04:41:42;;;;;;;8.77;2.27;;;;;;;23.24;100.00;101376.72;2082436;28;20173;-64
2023/09/14 04:42:42;;;;;;;7.90;2.23;;;;;;;23.28;100.00;101380.13;2083304;28;20177;-64
2023/09/14 04:43:43;;;;;;;11.93;2.30;;;;;;;23.35;100.00;101385.31;2076561;28;20197;-64
2023/09/14 04:44:49;;;;;;;5.47;2.27;;;;;;;22.74;100.00;101288.66;2077138;28;20197;-64
2023/09/14 04:45:50;;;;;;;11.80;2.73;;;;;;;23.32;100.00;101389.13;2074878;28;20188;-62